sensor_id;sensor_type;location;lat;lon;timestamp;pressure;altitude;pressure_sealevel;temperature;humidity
49947;BME280;35839;48.662;13.300;2023-02-21T05:39:22;97710.88;;;3.30;100.00
49947;BME280;35839;48.662;13.300;2023-02-21T05:41:48;97708.41;;;3.14;100.00
49947;BME280;35839;48.662;13.300;2023-02-21T05:44:15;97707.50;;;3.01;100.00
49947;BME280;35839;48.662;13.300;2023-02-21T05:46:40;97707.34;;;3.45;100.00
49947;BME280;35839;48.662;13.300;2023-02-21T05:49:06;97705.97;;;2.84;100.00
49947;BME280;35839;48.662;13.300;2023-02-21T05:51:40;97706.63;;;2.87;100.00
49947;BME280;35839;48.662;13.300;2023-02-21T05:54:08;97707.22;;;3.05;100.00
49947;BME280;35839;48.662;13.300;2023-02-21T05:56:38;97708.81;;;3.08;100.00
49947;BME280;35839;48.662;13.300;2023-02-21T05:59:04;97712.84;;;2.70;100.00
49947;BME280;35839;48.662;13.300;2023-02-21T06:01:30;97711.25;;;2.39;100.00
49947;BME280;35839;48.662;13.300;2023-02-21T06:03:55;97716.50;;;2.81;100.00
49947;BME280;35839;48.662;13.300;2023-02-21T06:06:21;97715.66;;;2.51;100.00
49947;BME280;35839;48.662;13.300;2023-02-21T06:08:47;97714.75;;;3.37;100.00
49947;BME280;35839;48.662;13.300;2023-02-21T06:11:13;97718.59;;;3.17;100.00
49947;BME280;35839;48.662;13.300;2023-02-21T06:13:40;97723.69;;;3.04;100.00
49947;BME280;35839;48.662;13.300;2023-02-21T06:16:05;97721.72;;;3.22;100.00
49947;BME280;35839;48.662;13.300;2023-02-21T06:18:31;97718.84;;;3.54;100.00
49947;BME280;35839;48.662;13.300;2023-02-21T06:20:56;97728.03;;;2.75;100.00
49947;BME280;35839;48.662;13.300;2023-02-21T06:23:21;97718.97;;;3.52;100.00
49947;BME280;35839;48.662;13.300;2023-02-21T06:25:47;97724.03;;;3.94;100.00
49947;BME280;35839;48.662;13.300;2023-02-21T06:28:12;97724.88;;;3.13;100.00
49947;BME280;35839;48.662;13.300;2023-02-21T06:30:37;97718.28;;;4.16;100.00
49947;BME280;35839;48.662;13.300;2023-02-21T06:33:02;97717.22;;;3.11;100.00
49947;BME280;35839;48.662;13.300;2023-02-21T06:35:28;97732.03;;;2.81;100.00
49947;BME280;35839;48.662;13.300;2023-02-21T06:37:53;97726.06;;;3.07;100.00
49947;BME280;35839;48.662;13.300;2023-02-21T06:40:18;97723.00;;;3.29;100.00
49947;BME280;35839;48.662;13.300;2023-02-21T06:42:44;97716.34;;;3.25;100.00
49947;BME280;35839;48.662;13.300;2023-02-21T06:45:09;97717.97;;;3.68;100.00
49947;BME280;35839;48.662;13.300;2023-02-21T06:47:34;97716.84;;;3.17;100.00
49947;BME280;35839;48.662;13.300;2023-02-21T06:50:00;97732.38;;;3.99;100.00
49947;BME280;35839;48.662;13.300;2023-02-21T06:52:25;97729.09;;;4.35;100.00
49947;BME280;35839;48.662;13.300;2023-02-21T06:54:50;97727.84;;;4.79;100.00
49947;BME280;35839;48.662;13.300;2023-02-21T06:57:16;97722.88;;;4.51;100.00
49947;BME280;35839;48.662;13.300;2023-02-21T06:59:41;97740.00;;;3.88;100.00
49947;BME280;35839;48.662;13.300;2023-02-21T07:02:14;97739.59;;;3.94;100.00
49947;BME280;35839;48.662;13.300;2023-02-21T07:04:39;97741.78;;;4.00;100.00
49947;BME280;35839;48.662;13.300;2023-02-21T07:07:04;97749.03;;;3.68;100.00
49947;BME280;35839;48.662;13.300;2023-02-21T07:09:30;97742.91;;;3.96;100.00
49947;BME280;35839;48.662;13.300;2023-02-21T07:11:55;97745.38;;;4.25;100.00
49947;BME280;35839;48.662;13.300;2023-02-21T07:14:20;97742.31;;;4.05;100.00
49947;BME280;35839;48.662;13.300;2023-02-21T07:16:46;97732.28;;;4.77;100.00
49947;BME280;35839;48.662;13.300;2023-02-21T07:19:11;97736.56;;;4.40;100.00
49947;BME280;35839;48.662;13.300;2023-02-21T07:21:40;97737.59;;;4.63;100.00
49947;BME280;35839;48.662;13.300;2023-02-21T07:24:05;97749.28;;;5.20;100.00
49947;BME280;35839;48.662;13.300;2023-02-21T07:26:30;97753.97;;;4.89;100.00
49947;BME280;35839;48.662;13.300;2023-02-21T07:28:56;97754.75;;;5.28;100.00
49947;BME280;35839;48.662;13.300;2023-02-21T07:31:21;97743.81;;;5.36;100.00
49947;BME280;35839;48.662;13.300;2023-02-21T07:33:46;97743.34;;;5.18;100.00
49947;BME280;35839;48.662;13.300;2023-02-21T07:36:12;97749.28;;;5.20;100.00
49947;BME280;35839;48.662;13.300;2023-02-21T07:38:37;97749.94;;;4.85;100.00
49947;BME280;35839;48.662;13.300;2023-02-21T07:41:02;97751.66;;;5.23;100.00
49947;BME280;35839;48.662;13.300;2023-02-21T07:43:29;97760.50;;;5.44;100.00
49947;BME280;35839;48.662;13.300;2023-02-21T07:45:55;97757.66;;;5.36;100.00
49947;BME280;35839;48.662;13.300;2023-02-21T07:48:21;97753.06;;;5.40;100.00
49947;BME280;35839;48.662;13.300;2023-02-21T07:50:46;97752.44;;;5.36;100.00
49947;BME280;35839;48.662;13.300;2023-02-21T07:53:12;97759.91;;;4.78;100.00
49947;BME280;35839;48.662;13.300;2023-02-21T07:55:38;97760.16;;;5.25;100.00
49947;BME280;35839;48.662;13.300;2023-02-21T07:58:03;97756.78;;;4.86;100.00
49947;BME280;35839;48.662;13.300;2023-02-21T08:00:29;97760.94;;;5.38;100.00
49947;BME280;35839;48.662;13.300;2023-02-21T08:02:55;97754.41;;;4.83;100.00
49947;BME280;35839;48.662;13.300;2023-02-21T08:05:20;97740.13;;;5.51;100.00
49947;BME280;35839;48.662;13.300;2023-02-21T08:07:46;97742.69;;;6.12;100.00
49947;BME280;35839;48.662;13.300;2023-02-21T08:10:12;97747.00;;;6.36;100.00
49947;BME280;35839;48.662;13.300;2023-02-21T08:12:38;97748.13;;;6.56;100.00
49947;BME280;35839;48.662;13.300;2023-02-21T08:15:04;97758.75;;;6.17;100.00
49947;BME280;35839;48.662;13.300;2023-02-21T08:17:30;97759.34;;;5.85;100.00
49947;BME280;35839;48.662;13.300;2023-02-21T08:19:56;97764.19;;;5.66;100.00
49947;BME280;35839;48.662;13.300;2023-02-21T08:22:21;97760.16;;;6.10;100.00
49947;BME280;35839;48.662;13.300;2023-02-21T08:24:49;97763.19;;;6.97;100.00
49947;BME280;35839;48.662;13.300;2023-02-21T08:27:15;97755.06;;;7.56;100.00
49947;BME280;35839;48.662;13.300;2023-02-21T08:29:41;97761.97;;;7.46;100.00
49947;BME280;35839;48.662;13.300;2023-02-21T08:32:06;97775.19;;;7.66;100.00
49947;BME280;35839;48.662;13.300;2023-02-21T08:34:33;97767.28;;;6.77;100.00
49947;BME280;35839;48.662;13.300;2023-02-21T08:36:58;97768.88;;;5.98;100.00
49947;BME280;35839;48.662;13.300;2023-02-21T08:39:23;97766.06;;;6.12;100.00
49947;BME280;35839;48.662;13.300;2023-02-21T08:41:48;97771.91;;;6.62;100.00
49947;BME280;35839;48.662;13.300;2023-02-21T08:44:16;97772.69;;;6.51;100.00
49947;BME280;35839;48.662;13.300;2023-02-21T08:46:41;97776.38;;;6.60;100.00
49947;BME280;35839;48.662;13.300;2023-02-21T08:49:08;97773.94;;;6.81;100.00
49947;BME280;35839;48.662;13.300;2023-02-21T08:51:34;97768.09;;;7.45;100.00
49947;BME280;35839;48.662;13.300;2023-02-21T08:54:00;97772.63;;;6.87;100.00
49947;BME280;35839;48.662;13.300;2023-02-21T08:56:26;97773.31;;;7.56;100.00
49947;BME280;35839;48.662;13.300;2023-02-21T08:58:53;97780.81;;;7.27;100.00
49947;BME280;35839;48.662;13.300;2023-02-21T09:01:19;97787.97;;;7.69;100.00
49947;BME280;35839;48.662;13.300;2023-02-21T09:03:45;97778.69;;;7.76;100.00
49947;BME280;35839;48.662;13.300;2023-02-21T09:06:11;97775.44;;;7.63;100.00
49947;BME280;35839;48.662;13.300;2023-02-21T09:08:36;97775.22;;;8.51;100.00
49947;BME280;35839;48.662;13.300;2023-02-21T09:11:02;97770.41;;;8.14;100.00
49947;BME280;35839;48.662;13.300;2023-02-21T09:13:29;97765.84;;;8.91;100.00
49947;BME280;35839;48.662;13.300;2023-02-21T09:15:55;97764.00;;;9.12;100.00
49947;BME280;35839;48.662;13.300;2023-02-21T09:18:21;97770.13;;;9.32;100.00
49947;BME280;35839;48.662;13.300;2023-02-21T09:20:47;97764.16;;;9.51;100.00
49947;BME280;35839;48.662;13.300;2023-02-21T09:23:16;97764.41;;;9.58;100.00
49947;BME280;35839;48.662;13.300;2023-02-21T09:25:44;97760.69;;;9.50;100.00
49947;BME280;35839;48.662;13.300;2023-02-21T09:28:10;97766.84;;;10.29;98.67
49947;BME280;35839;48.662;13.300;2023-02-21T09:30:35;97772.34;;;10.26;97.70
49947;BME280;35839;48.662;13.300;2023-02-21T09:33:00;97779.16;;;10.85;97.07
49947;BME280;35839;48.662;13.300;2023-02-21T09:35:26;97770.53;;;9.97;100.00
49947;BME280;35839;48.662;13.300;2023-02-21T09:37:54;97777.13;;;10.69;98.53
49947;BME280;35839;48.662;13.300;2023-02-21T09:40:40;97779.16;;;9.68;100.00
49947;BME280;35839;48.662;13.300;2023-02-21T09:45:40;97778.66;;;10.04;100.00
49947;BME280;35839;48.662;13.300;2023-02-21T09:48:10;97785.75;;;9.22;100.00
49947;BME280;35839;48.662;13.300;2023-02-21T09:50:49;97786.09;;;9.39;100.00
49947;BME280;35839;48.662;13.300;2023-02-21T09:53:21;97788.25;;;9.74;100.00
49947;BME280;35839;48.662;13.300;2023-02-21T09:55:49;97774.28;;;10.43;98.79
49947;BME280;35839;48.662;13.300;2023-02-21T09:58:18;97777.03;;;10.42;99.36
49947;BME280;35839;48.662;13.300;2023-02-21T10:00:44;97781.44;;;10.41;100.00
49947;BME280;35839;48.662;13.300;2023-02-21T10:03:44;97784.16;;;10.69;98.63
49947;BME280;35839;48.662;13.300;2023-02-21T10:06:39;97784.53;;;10.84;98.19
49947;BME280;35839;48.662;13.300;2023-02-21T10:09:23;97786.41;;;11.38;92.11
49947;BME280;35839;48.662;13.300;2023-02-21T10:12:28;97772.53;;;10.81;96.29
49947;BME280;35839;48.662;13.300;2023-02-21T10:18:03;97769.25;;;11.54;91.98
49947;BME280;35839;48.662;13.300;2023-02-21T10:23:22;97762.31;;;12.52;86.91
49947;BME280;35839;48.662;13.300;2023-02-21T10:25:51;97767.00;;;12.40;89.19
49947;BME280;35839;48.662;13.300;2023-02-21T10:28:23;97769.31;;;11.62;93.47
49947;BME280;35839;48.662;13.300;2023-02-21T10:30:51;97766.00;;;12.23;91.82
49947;BME280;35839;48.662;13.300;2023-02-21T10:33:18;97760.81;;;13.28;85.40
49947;BME280;35839;48.662;13.300;2023-02-21T10:35:43;97752.28;;;13.93;81.09
49947;BME280;35839;48.662;13.300;2023-02-21T10:38:12;97757.06;;;12.78;84.95
49947;BME280;35839;48.662;13.300;2023-02-21T10:40:41;97748.31;;;12.26;87.79
49947;BME280;35839;48.662;13.300;2023-02-21T10:43:44;97740.50;;;12.78;84.69
49947;BME280;35839;48.662;13.300;2023-02-21T10:46:18;97745.94;;;13.53;80.43
49947;BME280;35839;48.662;13.300;2023-02-21T10:48:47;97747.84;;;13.85;80.31
49947;BME280;35839;48.662;13.300;2023-02-21T10:51:16;97742.75;;;13.33;79.05
49947;BME280;35839;48.662;13.300;2023-02-21T10:53:52;97743.59;;;14.17;76.77
49947;BME280;35839;48.662;13.300;2023-02-21T10:58:52;97744.56;;;13.33;82.42
49947;BME280;35839;48.662;13.300;2023-02-21T11:01:21;97739.00;;;14.11;76.82
49947;BME280;35839;48.662;13.300;2023-02-21T11:06:48;97734.72;;;14.75;73.94
49947;BME280;35839;48.662;13.300;2023-02-21T11:09:46;97736.38;;;13.36;82.00
49947;BME280;35839;48.662;13.300;2023-02-21T11:14:40;97721.53;;;14.34;78.27
49947;BME280;35839;48.662;13.300;2023-02-21T11:17:23;97718.09;;;14.59;76.74
49947;BME280;35839;48.662;13.300;2023-02-21T11:19:53;97717.75;;;14.78;78.06
49947;BME280;35839;48.662;13.300;2023-02-21T11:22:25;97710.47;;;14.80;76.32
49947;BME280;35839;48.662;13.300;2023-02-21T11:30:36;97703.44;;;14.23;78.07
49947;BME280;35839;48.662;13.300;2023-02-21T11:33:03;97709.22;;;14.60;77.89
49947;BME280;35839;48.662;13.300;2023-02-21T11:35:33;97705.75;;;14.34;77.08
49947;BME280;35839;48.662;13.300;2023-02-21T11:38:04;97702.13;;;13.95;79.80
49947;BME280;35839;48.662;13.300;2023-02-21T11:40:39;97697.69;;;14.36;78.92
49947;BME280;35839;48.662;13.300;2023-02-21T11:45:36;97695.59;;;14.95;75.50
49947;BME280;35839;48.662;13.300;2023-02-21T11:48:12;97692.91;;;15.12;75.86
49947;BME280;35839;48.662;13.300;2023-02-21T11:50:45;97689.66;;;14.93;77.61
49947;BME280;35839;48.662;13.300;2023-02-21T11:55:59;97672.56;;;15.52;75.68
49947;BME280;35839;48.662;13.300;2023-02-21T11:58:38;97671.25;;;14.85;78.93
49947;BME280;35839;48.662;13.300;2023-02-21T12:01:10;97673.38;;;14.90;79.66
49947;BME280;35839;48.662;13.300;2023-02-21T12:06:44;97660.50;;;14.95;79.73
49947;BME280;35839;48.662;13.300;2023-02-21T12:09:18;97658.34;;;13.94;82.55
49947;BME280;35839;48.662;13.300;2023-02-21T12:14:34;97657.47;;;14.67;80.55
49947;BME280;35839;48.662;13.300;2023-02-21T12:17:20;97644.28;;;15.69;77.78
49947;BME280;35839;48.662;13.300;2023-02-21T12:19:55;97652.44;;;15.82;75.53
49947;BME280;35839;48.662;13.300;2023-02-21T12:22:40;97651.22;;;14.60;82.04
49947;BME280;35839;48.662;13.300;2023-02-21T12:25:35;97645.03;;;14.92;79.10
49947;BME280;35839;48.662;13.300;2023-02-21T12:30:49;97629.47;;;15.05;80.67
49947;BME280;35839;48.662;13.300;2023-02-21T12:33:48;97622.44;;;14.25;83.96
49947;BME280;35839;48.662;13.300;2023-02-21T12:38:53;97618.50;;;14.21;84.77
49947;BME280;35839;48.662;13.300;2023-02-21T12:41:40;97605.94;;;14.48;84.71
49947;BME280;35839;48.662;13.300;2023-02-21T12:44:13;97606.53;;;15.37;79.50
49947;BME280;35839;48.662;13.300;2023-02-21T12:46:50;97606.50;;;14.10;84.37
49947;BME280;35839;48.662;13.300;2023-02-21T12:49:49;97605.22;;;14.70;84.44
49947;BME280;35839;48.662;13.300;2023-02-21T12:52:38;97598.63;;;15.37;79.94
49947;BME280;35839;48.662;13.300;2023-02-21T12:55:13;97597.50;;;15.08;82.53
49947;BME280;35839;48.662;13.300;2023-02-21T13:05:54;97588.44;;;15.34;78.92
49947;BME280;35839;48.662;13.300;2023-02-21T13:08:26;97586.69;;;15.72;77.74
49947;BME280;35839;48.662;13.300;2023-02-21T13:11:01;97591.00;;;14.88;81.54
49947;BME280;35839;48.662;13.300;2023-02-21T13:13:32;97587.50;;;14.56;83.36
49947;BME280;35839;48.662;13.300;2023-02-21T13:16:00;97573.78;;;15.00;81.55
49947;BME280;35839;48.662;13.300;2023-02-21T13:18:30;97581.09;;;15.44;79.38
49947;BME280;35839;48.662;13.300;2023-02-21T13:24:09;97564.69;;;15.34;80.14
49947;BME280;35839;48.662;13.300;2023-02-21T13:26:39;97563.03;;;14.79;81.79
49947;BME280;35839;48.662;13.300;2023-02-21T13:29:17;97546.88;;;14.34;85.38
49947;BME280;35839;48.662;13.300;2023-02-21T13:31:43;97541.44;;;15.52;81.36
49947;BME280;35839;48.662;13.300;2023-02-21T13:34:11;97538.22;;;15.65;79.49
49947;BME280;35839;48.662;13.300;2023-02-21T13:36:44;97541.66;;;15.89;78.36
49947;BME280;35839;48.662;13.300;2023-02-21T13:39:16;97539.16;;;16.25;75.48
49947;BME280;35839;48.662;13.300;2023-02-21T13:41:49;97535.84;;;16.08;78.03
49947;BME280;35839;48.662;13.300;2023-02-21T13:44:22;97541.50;;;17.16;70.81
49947;BME280;35839;48.662;13.300;2023-02-21T13:57:41;97533.38;;;18.51;68.18
49947;BME280;35839;48.662;13.300;2023-02-21T14:08:29;97518.97;;;19.49;60.49
49947;BME280;35839;48.662;13.300;2023-02-21T14:11:00;97522.66;;;17.47;65.88
49947;BME280;35839;48.662;13.300;2023-02-21T14:18:48;97517.78;;;17.29;72.97
49947;BME280;35839;48.662;13.300;2023-02-21T14:21:29;97516.34;;;17.05;67.94
49947;BME280;35839;48.662;13.300;2023-02-21T14:29:11;97509.81;;;18.28;64.40
49947;BME280;35839;48.662;13.300;2023-02-21T14:37:43;97506.47;;;18.54;62.83
49947;BME280;35839;48.662;13.300;2023-02-21T14:59:53;97483.88;;;17.89;65.09
49947;BME280;35839;48.662;13.300;2023-02-21T15:02:33;97490.53;;;17.07;68.32
49947;BME280;35839;48.662;13.300;2023-02-21T15:08:17;97475.91;;;17.33;69.41
49947;BME280;35839;48.662;13.300;2023-02-21T15:10:45;97474.00;;;17.26;68.46
49947;BME280;35839;48.662;13.300;2023-02-21T15:13:32;97468.50;;;17.78;66.95
49947;BME280;35839;48.662;13.300;2023-02-21T15:16:00;97458.28;;;18.44;63.05
49947;BME280;35839;48.662;13.300;2023-02-21T15:18:29;97455.19;;;21.31;59.94
49947;BME280;35839;48.662;13.300;2023-02-21T15:21:20;97456.06;;;22.37;53.90
49947;BME280;35839;48.662;13.300;2023-02-21T15:23:48;97455.19;;;23.69;49.04
49947;BME280;35839;48.662;13.300;2023-02-21T15:26:26;97461.72;;;23.07;45.63
49947;BME280;35839;48.662;13.300;2023-02-21T15:31:37;97463.75;;;24.42;40.35
49947;BME280;35839;48.662;13.300;2023-02-21T15:34:03;97467.75;;;22.84;42.97
49947;BME280;35839;48.662;13.300;2023-02-21T15:36:29;97465.09;;;22.54;46.86
49947;BME280;35839;48.662;13.300;2023-02-21T15:39:15;97478.06;;;20.10;50.19
49947;BME280;35839;48.662;13.300;2023-02-21T15:41:44;97464.84;;;19.63;51.22
49947;BME280;35839;48.662;13.300;2023-02-21T15:44:21;97461.56;;;20.59;48.67
49947;BME280;35839;48.662;13.300;2023-02-21T15:46:55;97463.72;;;20.76;48.67
49947;BME280;35839;48.662;13.300;2023-02-21T15:49:28;97465.09;;;18.67;52.03
49947;BME280;35839;48.662;13.300;2023-02-21T15:51:54;97461.75;;;19.53;52.31
49947;BME280;35839;48.662;13.300;2023-02-21T15:54:21;97466.09;;;18.18;58.17
49947;BME280;35839;48.662;13.300;2023-02-21T15:57:03;97457.94;;;16.85;65.26
49947;BME280;35839;48.662;13.300;2023-02-21T15:59:29;97469.28;;;16.79;63.56
49947;BME280;35839;48.662;13.300;2023-02-21T16:04:37;97471.75;;;17.23;63.43
49947;BME280;35839;48.662;13.300;2023-02-21T16:07:04;97470.78;;;17.31;63.22
49947;BME280;35839;48.662;13.300;2023-02-21T16:09:32;97467.06;;;14.65;75.35
49947;BME280;35839;48.662;13.300;2023-02-21T16:14:41;97468.97;;;15.40;74.06
49947;BME280;35839;48.662;13.300;2023-02-21T16:17:30;97464.69;;;15.01;75.26
49947;BME280;35839;48.662;13.300;2023-02-21T16:20:01;97459.41;;;15.01;73.00
49947;BME280;35839;48.662;13.300;2023-02-21T16:22:41;97463.53;;;15.79;68.47
49947;BME280;35839;48.662;13.300;2023-02-21T16:27:42;97459.34;;;15.85;68.64
49947;BME280;35839;48.662;13.300;2023-02-21T16:30:15;97465.69;;;13.90;78.86
49947;BME280;35839;48.662;13.300;2023-02-21T16:32:44;97458.66;;;14.61;75.95
49947;BME280;35839;48.662;13.300;2023-02-21T16:35:16;97460.03;;;14.57;77.40
49947;BME280;35839;48.662;13.300;2023-02-21T16:37:44;97462.25;;;14.91;74.67
49947;BME280;35839;48.662;13.300;2023-02-21T16:40:12;97450.97;;;14.83;75.93
49947;BME280;35839;48.662;13.300;2023-02-21T16:42:37;97448.97;;;14.85;75.57
49947;BME280;35839;48.662;13.300;2023-02-21T16:45:03;97454.34;;;14.91;74.00
49947;BME280;35839;48.662;13.300;2023-02-21T16:47:28;97445.06;;;15.04;72.69
49947;BME280;35839;48.662;13.300;2023-02-21T16:49:53;97444.78;;;14.75;74.61
49947;BME280;35839;48.662;13.300;2023-02-21T16:52:19;97439.63;;;14.43;76.43
49947;BME280;35839;48.662;13.300;2023-02-21T16:54:44;97440.06;;;14.86;74.30
49947;BME280;35839;48.662;13.300;2023-02-21T16:57:09;97438.44;;;14.62;73.16
49947;BME280;35839;48.662;13.300;2023-02-21T16:59:36;97445.50;;;14.22;75.76
49947;BME280;35839;48.662;13.300;2023-02-21T17:02:01;97441.31;;;13.96;74.87
49947;BME280;35839;48.662;13.300;2023-02-21T17:04:28;97447.63;;;13.79;78.47
49947;BME280;35839;48.662;13.300;2023-02-21T17:07:04;97436.75;;;13.82;77.85
49947;BME280;35839;48.662;13.300;2023-02-21T17:09:33;97436.31;;;14.57;75.22
49947;BME280;35839;48.662;13.300;2023-02-21T17:12:04;97442.97;;;14.68;74.76
49947;BME280;35839;48.662;13.300;2023-02-21T17:14:31;97434.91;;;14.92;72.26
49947;BME280;35839;48.662;13.300;2023-02-21T17:16:57;97429.16;;;15.12;72.09
49947;BME280;35839;48.662;13.300;2023-02-21T17:19:22;97432.03;;;15.02;72.16
49947;BME280;35839;48.662;13.300;2023-02-21T17:21:49;97433.09;;;14.39;73.70
49947;BME280;35839;48.662;13.300;2023-02-21T17:24:15;97433.06;;;13.43;77.23
49947;BME280;35839;48.662;13.300;2023-02-21T17:26:40;97437.50;;;13.18;78.03
49947;BME280;35839;48.662;13.300;2023-02-21T17:29:11;97434.06;;;13.18;78.53
49947;BME280;35839;48.662;13.300;2023-02-21T17:31:36;97441.28;;;13.16;77.59
49947;BME280;35839;48.662;13.300;2023-02-21T17:34:02;97444.94;;;13.31;76.19
49947;BME280;35839;48.662;13.300;2023-02-21T17:36:28;97443.81;;;11.99;86.59
49947;BME280;35839;48.662;13.300;2023-02-21T17:38:54;97434.41;;;11.63;89.12
49947;BME280;35839;48.662;13.300;2023-02-21T17:41:20;97435.28;;;11.97;88.78
49947;BME280;35839;48.662;13.300;2023-02-21T17:43:46;97433.06;;;11.85;91.33
49947;BME280;35839;48.662;13.300;2023-02-21T17:46:12;97431.78;;;11.89;88.44
49947;BME280;35839;48.662;13.300;2023-02-21T17:48:42;97436.59;;;12.36;87.85
49947;BME280;35839;48.662;13.300;2023-02-21T17:51:08;97442.56;;;11.86;91.95
49947;BME280;35839;48.662;13.300;2023-02-21T17:53:34;97441.16;;;11.39;93.85
49947;BME280;35839;48.662;13.300;2023-02-21T17:55:59;97447.63;;;12.05;88.60
49947;BME280;35839;48.662;13.300;2023-02-21T17:58:28;97439.41;;;12.51;85.21
49947;BME280;35839;48.662;13.300;2023-02-21T18:00:57;97429.53;;;12.36;90.47
49947;BME280;35839;48.662;13.300;2023-02-21T18:03:23;97435.31;;;12.56;88.64
49947;BME280;35839;48.662;13.300;2023-02-21T18:05:48;97444.72;;;12.16;88.13
49947;BME280;35839;48.662;13.300;2023-02-21T18:08:16;97439.41;;;11.22;93.35
49947;BME280;35839;48.662;13.300;2023-02-21T18:10:41;97441.00;;;11.67;92.65
49947;BME280;35839;48.662;13.300;2023-02-21T18:13:11;97450.63;;;11.58;90.40
49947;BME280;35839;48.662;13.300;2023-02-21T18:15:37;97441.88;;;11.75;88.17
49947;BME280;35839;48.662;13.300;2023-02-21T18:18:02;97460.50;;;12.25;83.37
49947;BME280;35839;48.662;13.300;2023-02-21T18:20:29;97454.25;;;11.13;88.22
49947;BME280;35839;48.662;13.300;2023-02-21T18:22:56;97457.91;;;11.20;92.35
49947;BME280;35839;48.662;13.300;2023-02-21T18:25:21;97456.53;;;11.34;91.52
49947;BME280;35839;48.662;13.300;2023-02-21T18:27:48;97454.84;;;11.07;93.59
49947;BME280;35839;48.662;13.300;2023-02-21T18:30:15;97449.66;;;11.59;92.46
49947;BME280;35839;48.662;13.300;2023-02-21T18:32:41;97454.00;;;11.76;92.12
49947;BME280;35839;48.662;13.300;2023-02-21T18:35:06;97456.81;;;12.09;88.64
49947;BME280;35839;48.662;13.300;2023-02-21T18:37:32;97451.22;;;12.04;87.67
49947;BME280;35839;48.662;13.300;2023-02-21T18:39:57;97445.78;;;11.19;94.72
49947;BME280;35839;48.662;13.300;2023-02-21T18:42:23;97449.22;;;10.20;96.02
49947;BME280;35839;48.662;13.300;2023-02-21T18:44:49;97440.34;;;10.03;95.58
49947;BME280;35839;48.662;13.300;2023-02-21T18:47:15;97441.28;;;10.12;96.20
49947;BME280;35839;48.662;13.300;2023-02-21T18:49:42;97448.09;;;10.23;92.82
49947;BME280;35839;48.662;13.300;2023-02-21T18:52:09;97445.50;;;10.86;88.98
49947;BME280;35839;48.662;13.300;2023-02-21T18:54:35;97448.28;;;9.84;95.65
49947;BME280;35839;48.662;13.300;2023-02-21T18:57:00;97436.56;;;10.43;93.29
49947;BME280;35839;48.662;13.300;2023-02-21T18:59:26;97452.38;;;9.96;97.03
49947;BME280;35839;48.662;13.300;2023-02-21T19:01:53;97451.13;;;10.00;100.00
49947;BME280;35839;48.662;13.300;2023-02-21T19:04:20;97452.84;;;9.25;100.00
49947;BME280;35839;48.662;13.300;2023-02-21T19:06:45;97453.81;;;9.14;100.00
49947;BME280;35839;48.662;13.300;2023-02-21T19:09:11;97459.25;;;9.50;100.00
49947;BME280;35839;48.662;13.300;2023-02-21T19:11:37;97454.81;;;9.60;100.00
49947;BME280;35839;48.662;13.300;2023-02-21T19:14:03;97454.59;;;9.91;100.00
49947;BME280;35839;48.662;13.300;2023-02-21T19:16:30;97460.47;;;9.65;100.00
49947;BME280;35839;48.662;13.300;2023-02-21T19:18:57;97451.75;;;9.08;100.00
49947;BME280;35839;48.662;13.300;2023-02-21T19:21:23;97461.91;;;9.40;100.00
49947;BME280;35839;48.662;13.300;2023-02-21T19:23:49;97447.25;;;9.57;100.00
49947;BME280;35839;48.662;13.300;2023-02-21T19:26:15;97446.25;;;9.21;100.00
49947;BME280;35839;48.662;13.300;2023-02-21T19:28:41;97450.34;;;9.43;100.00
49947;BME280;35839;48.662;13.300;2023-02-21T19:31:07;97448.00;;;9.40;100.00
49947;BME280;35839;48.662;13.300;2023-02-21T19:33:35;97438.16;;;9.14;100.00
49947;BME280;35839;48.662;13.300;2023-02-21T19:36:05;97450.56;;;9.59;100.00
49947;BME280;35839;48.662;13.300;2023-02-21T19:38:30;97450.53;;;9.69;100.00
49947;BME280;35839;48.662;13.300;2023-02-21T19:40:56;97448.72;;;9.22;100.00
49947;BME280;35839;48.662;13.300;2023-02-21T19:43:21;97447.56;;;9.54;100.00
49947;BME280;35839;48.662;13.300;2023-02-21T19:45:47;97446.72;;;9.63;100.00
49947;BME280;35839;48.662;13.300;2023-02-21T19:48:12;97446.16;;;9.60;100.00
49947;BME280;35839;48.662;13.300;2023-02-21T19:50:37;97441.88;;;9.68;100.00
49947;BME280;35839;48.662;13.300;2023-02-21T19:53:03;97449.94;;;8.40;100.00
49947;BME280;35839;48.662;13.300;2023-02-21T19:55:29;97448.06;;;8.91;100.00
49947;BME280;35839;48.662;13.300;2023-02-21T19:57:55;97446.81;;;9.05;100.00
49947;BME280;35839;48.662;13.300;2023-02-21T20:00:20;97447.09;;;8.82;100.00
49947;BME280;35839;48.662;13.300;2023-02-21T20:02:47;97457.00;;;8.79;100.00
49947;BME280;35839;48.662;13.300;2023-02-21T20:05:14;97453.72;;;10.00;99.06
49947;BME280;35839;48.662;13.300;2023-02-21T20:07:40;97452.72;;;9.17;100.00
49947;BME280;35839;48.662;13.300;2023-02-21T20:10:06;97469.03;;;9.38;100.00
49947;BME280;35839;48.662;13.300;2023-02-21T20:12:32;97466.44;;;9.28;100.00
49947;BME280;35839;48.662;13.300;2023-02-21T20:14:57;97463.84;;;8.90;100.00
49947;BME280;35839;48.662;13.300;2023-02-21T20:17:23;97458.22;;;8.15;100.00
49947;BME280;35839;48.662;13.300;2023-02-21T20:19:49;97462.25;;;7.88;100.00
49947;BME280;35839;48.662;13.300;2023-02-21T20:22:14;97462.03;;;7.70;100.00
49947;BME280;35839;48.662;13.300;2023-02-21T20:24:41;97463.28;;;7.45;100.00
49947;BME280;35839;48.662;13.300;2023-02-21T20:27:10;97470.22;;;7.35;100.00
49947;BME280;35839;48.662;13.300;2023-02-21T20:29:35;97464.94;;;7.77;100.00
49947;BME280;35839;48.662;13.300;2023-02-21T20:32:01;97466.38;;;7.91;100.00
49947;BME280;35839;48.662;13.300;2023-02-21T20:34:28;97463.97;;;8.09;100.00
49947;BME280;35839;48.662;13.300;2023-02-21T20:36:53;97463.81;;;7.18;100.00